SCCY/GXQ METAR and TAF weather

Enter ICAO airport designator
Station Type Date Time Source
SCCY METAR 2023/01/30 12:00 UTC NOAA

SCCY 301200Z 23009G19KT 180V270 9999 FEW040 SCT200 15/03 Q1013


Station Type Date Time Source
SCCY Decoded METAR 2023/01/30 12:00 UTC NOAA

Coyhaique, Chile (SCCY) 45-35S 072-07W
Jan 30, 2023 - 07:00 AM EST / 2023.01.30 1200 UTC
Wind: from the SW (230 degrees) at 10 MPH (9 KT) gusting to 22 MPH (19 KT) (direction variable):0
Visibility: greater than 7 mile(s):0
Sky conditions: partly cloudy
Temperature: 59 F (15 C)
Dew Point: 37 F (3 C)
Relative Humidity: 44%
Pressure (altimeter): 29.91 in. Hg (1013 hPa)
ob: SCCY 301200Z 23009G19KT 180V270 9999 FEW040 SCT200 15/03 Q1013
cycle: 12

Station Type Date Time Source
SCCY TAF 2023/01/30 12:33 UTC NOAA

TAF SCCY 301029Z 3012/3024 25006KT 9999 FEW040 TN14/3012Z TX23/3019Z
TEMPO 3012/3015 6000 -DZ OVC050
BECMG 3015/3017 CAVOK

Example: see airport list